sensor_id;sensor_type;location;lat;lon;timestamp;P1;durP1;ratioP1;P2;durP2;ratioP2
51987;SDS011;38003;52.012;4.346;2022-10-23T00:02:10;10.53;;;6.90;;
51987;SDS011;38003;52.012;4.346;2022-10-23T00:04:38;11.33;;;7.17;;
51987;SDS011;38003;52.012;4.346;2022-10-23T00:07:06;12.10;;;7.80;;
51987;SDS011;38003;52.012;4.346;2022-10-23T00:09:35;13.73;;;8.37;;
51987;SDS011;38003;52.012;4.346;2022-10-23T00:12:03;15.30;;;8.23;;
51987;SDS011;38003;52.012;4.346;2022-10-23T00:14:31;15.77;;;8.43;;
51987;SDS011;38003;52.012;4.346;2022-10-23T00:16:59;11.03;;;7.37;;
51987;SDS011;38003;52.012;4.346;2022-10-23T00:19:26;13.87;;;7.23;;
51987;SDS011;38003;52.012;4.346;2022-10-23T00:21:54;13.17;;;7.20;;
51987;SDS011;38003;52.012;4.346;2022-10-23T00:24:22;12.03;;;7.47;;
51987;SDS011;38003;52.012;4.346;2022-10-23T00:26:51;11.70;;;7.23;;
51987;SDS011;38003;52.012;4.346;2022-10-23T00:29:19;12.20;;;6.87;;
51987;SDS011;38003;52.012;4.346;2022-10-23T00:31:47;11.60;;;6.93;;
51987;SDS011;38003;52.012;4.346;2022-10-23T00:34:14;14.27;;;7.23;;
51987;SDS011;38003;52.012;4.346;2022-10-23T00:36:42;11.60;;;7.13;;
51987;SDS011;38003;52.012;4.346;2022-10-23T00:39:10;13.73;;;7.03;;
51987;SDS011;38003;52.012;4.346;2022-10-23T00:41:38;9.83;;;7.33;;
51987;SDS011;38003;52.012;4.346;2022-10-23T00:44:09;12.63;;;7.70;;
51987;SDS011;38003;52.012;4.346;2022-10-23T00:46:58;11.07;;;7.43;;
51987;SDS011;38003;52.012;4.346;2022-10-23T00:49:26;15.10;;;7.83;;
51987;SDS011;38003;52.012;4.346;2022-10-23T00:51:56;12.50;;;7.87;;
51987;SDS011;38003;52.012;4.346;2022-10-23T00:54:28;11.93;;;7.87;;
51987;SDS011;38003;52.012;4.346;2022-10-23T00:57:01;9.67;;;7.70;;
51987;SDS011;38003;52.012;4.346;2022-10-23T00:59:32;13.10;;;8.40;;
51987;SDS011;38003;52.012;4.346;2022-10-23T01:02:02;12.90;;;8.10;;
51987;SDS011;38003;52.012;4.346;2022-10-23T01:04:31;10.50;;;8.03;;
51987;SDS011;38003;52.012;4.346;2022-10-23T01:07:01;11.87;;;8.00;;
51987;SDS011;38003;52.012;4.346;2022-10-23T01:09:34;14.03;;;8.50;;
51987;SDS011;38003;52.012;4.346;2022-10-23T01:12:07;15.73;;;8.30;;
51987;SDS011;38003;52.012;4.346;2022-10-23T01:14:42;13.57;;;8.73;;
51987;SDS011;38003;52.012;4.346;2022-10-23T01:17:19;10.57;;;8.13;;
51987;SDS011;38003;52.012;4.346;2022-10-23T01:19:56;13.97;;;7.90;;
51987;SDS011;38003;52.012;4.346;2022-10-23T01:22:40;11.97;;;8.10;;
51987;SDS011;38003;52.012;4.346;2022-10-23T01:25:22;13.33;;;7.47;;
51987;SDS011;38003;52.012;4.346;2022-10-23T01:28:02;12.50;;;8.37;;
51987;SDS011;38003;52.012;4.346;2022-10-23T01:30:35;11.60;;;7.97;;
51987;SDS011;38003;52.012;4.346;2022-10-23T01:33:09;15.17;;;7.50;;
51987;SDS011;38003;52.012;4.346;2022-10-23T01:35:44;14.43;;;7.87;;
51987;SDS011;38003;52.012;4.346;2022-10-23T01:38:16;10.97;;;7.23;;
51987;SDS011;38003;52.012;4.346;2022-10-23T01:40:51;9.90;;;7.47;;
51987;SDS011;38003;52.012;4.346;2022-10-23T01:43:29;12.43;;;7.40;;
51987;SDS011;38003;52.012;4.346;2022-10-23T01:46:02;13.30;;;7.53;;
51987;SDS011;38003;52.012;4.346;2022-10-23T01:48:33;13.27;;;7.60;;
51987;SDS011;38003;52.012;4.346;2022-10-23T01:51:04;10.17;;;7.37;;
51987;SDS011;38003;52.012;4.346;2022-10-23T01:53:35;14.07;;;7.77;;
51987;SDS011;38003;52.012;4.346;2022-10-23T01:56:08;11.70;;;8.03;;
51987;SDS011;38003;52.012;4.346;2022-10-23T01:58:39;14.33;;;7.67;;
51987;SDS011;38003;52.012;4.346;2022-10-23T02:01:10;14.70;;;7.83;;
51987;SDS011;38003;52.012;4.346;2022-10-23T02:03:39;15.33;;;7.50;;
51987;SDS011;38003;52.012;4.346;2022-10-23T02:06:09;10.67;;;7.37;;
51987;SDS011;38003;52.012;4.346;2022-10-23T02:08:38;11.47;;;7.40;;
51987;SDS011;38003;52.012;4.346;2022-10-23T02:11:07;11.77;;;7.53;;
51987;SDS011;38003;52.012;4.346;2022-10-23T02:13:37;9.17;;;6.73;;
51987;SDS011;38003;52.012;4.346;2022-10-23T02:16:12;12.63;;;7.40;;
51987;SDS011;38003;52.012;4.346;2022-10-23T02:18:50;10.83;;;7.07;;
51987;SDS011;38003;52.012;4.346;2022-10-23T02:21:24;11.77;;;8.10;;
51987;SDS011;38003;52.012;4.346;2022-10-23T02:23:58;12.33;;;7.63;;
51987;SDS011;38003;52.012;4.346;2022-10-23T02:26:30;14.00;;;7.10;;
51987;SDS011;38003;52.012;4.346;2022-10-23T02:29:04;11.00;;;6.80;;
51987;SDS011;38003;52.012;4.346;2022-10-23T02:31:36;9.37;;;7.17;;
51987;SDS011;38003;52.012;4.346;2022-10-23T02:34:04;10.63;;;7.27;;
51987;SDS011;38003;52.012;4.346;2022-10-23T02:36:32;13.87;;;8.27;;
51987;SDS011;38003;52.012;4.346;2022-10-23T02:39:00;11.30;;;7.80;;
51987;SDS011;38003;52.012;4.346;2022-10-23T02:41:30;10.33;;;7.70;;
51987;SDS011;38003;52.012;4.346;2022-10-23T02:44:16;11.63;;;7.60;;
51987;SDS011;38003;52.012;4.346;2022-10-23T02:46:52;11.03;;;7.67;;
51987;SDS011;38003;52.012;4.346;2022-10-23T02:49:28;9.57;;;7.27;;
51987;SDS011;38003;52.012;4.346;2022-10-23T02:52:05;10.40;;;7.10;;
51987;SDS011;38003;52.012;4.346;2022-10-23T02:54:47;12.47;;;7.50;;
51987;SDS011;38003;52.012;4.346;2022-10-23T02:57:27;10.30;;;7.20;;
51987;SDS011;38003;52.012;4.346;2022-10-23T03:00:03;12.00;;;7.30;;
51987;SDS011;38003;52.012;4.346;2022-10-23T03:02:35;13.17;;;8.07;;
51987;SDS011;38003;52.012;4.346;2022-10-23T03:05:07;11.73;;;8.23;;
51987;SDS011;38003;52.012;4.346;2022-10-23T03:07:38;11.80;;;7.83;;
51987;SDS011;38003;52.012;4.346;2022-10-23T03:10:08;12.97;;;7.70;;
51987;SDS011;38003;52.012;4.346;2022-10-23T03:12:36;15.17;;;8.17;;
51987;SDS011;38003;52.012;4.346;2022-10-23T03:15:07;12.70;;;7.47;;
51987;SDS011;38003;52.012;4.346;2022-10-23T03:17:37;12.90;;;8.10;;
51987;SDS011;38003;52.012;4.346;2022-10-23T03:20:06;12.17;;;7.63;;
51987;SDS011;38003;52.012;4.346;2022-10-23T03:22:35;12.97;;;8.40;;
51987;SDS011;38003;52.012;4.346;2022-10-23T03:25:04;14.03;;;8.40;;
51987;SDS011;38003;52.012;4.346;2022-10-23T03:27:32;13.73;;;7.70;;
51987;SDS011;38003;52.012;4.346;2022-10-23T03:30:00;10.77;;;8.60;;
51987;SDS011;38003;52.012;4.346;2022-10-23T03:32:29;14.60;;;7.77;;
51987;SDS011;38003;52.012;4.346;2022-10-23T03:34:57;12.83;;;7.47;;
51987;SDS011;38003;52.012;4.346;2022-10-23T03:37:25;11.60;;;7.50;;
51987;SDS011;38003;52.012;4.346;2022-10-23T03:39:53;12.13;;;8.03;;
51987;SDS011;38003;52.012;4.346;2022-10-23T03:42:21;13.00;;;7.63;;
51987;SDS011;38003;52.012;4.346;2022-10-23T03:44:49;13.63;;;7.63;;
51987;SDS011;38003;52.012;4.346;2022-10-23T03:47:16;12.40;;;7.80;;
51987;SDS011;38003;52.012;4.346;2022-10-23T03:49:45;11.27;;;7.67;;
51987;SDS011;38003;52.012;4.346;2022-10-23T03:52:13;11.03;;;7.17;;
51987;SDS011;38003;52.012;4.346;2022-10-23T03:54:41;11.73;;;7.17;;
51987;SDS011;38003;52.012;4.346;2022-10-23T03:57:09;14.10;;;8.07;;
51987;SDS011;38003;52.012;4.346;2022-10-23T03:59:37;13.17;;;8.13;;
51987;SDS011;38003;52.012;4.346;2022-10-23T04:02:05;12.53;;;7.50;;
51987;SDS011;38003;52.012;4.346;2022-10-23T04:04:33;11.63;;;7.43;;
51987;SDS011;38003;52.012;4.346;2022-10-23T04:07:02;12.03;;;7.90;;
51987;SDS011;38003;52.012;4.346;2022-10-23T04:09:30;11.07;;;8.20;;
51987;SDS011;38003;52.012;4.346;2022-10-23T04:11:57;10.67;;;7.10;;
51987;SDS011;38003;52.012;4.346;2022-10-23T04:14:25;12.30;;;7.93;;
51987;SDS011;38003;52.012;4.346;2022-10-23T04:16:53;14.13;;;7.53;;
51987;SDS011;38003;52.012;4.346;2022-10-23T04:19:21;11.53;;;7.40;;
51987;SDS011;38003;52.012;4.346;2022-10-23T04:21:49;13.80;;;8.07;;
51987;SDS011;38003;52.012;4.346;2022-10-23T04:24:18;11.13;;;7.70;;
51987;SDS011;38003;52.012;4.346;2022-10-23T04:26:46;13.73;;;7.47;;
51987;SDS011;38003;52.012;4.346;2022-10-23T04:29:14;9.13;;;6.83;;
51987;SDS011;38003;52.012;4.346;2022-10-23T04:31:41;11.30;;;7.67;;
51987;SDS011;38003;52.012;4.346;2022-10-23T04:34:09;11.67;;;7.97;;
51987;SDS011;38003;52.012;4.346;2022-10-23T04:36:37;14.80;;;7.67;;
51987;SDS011;38003;52.012;4.346;2022-10-23T04:39:05;10.43;;;7.20;;
51987;SDS011;38003;52.012;4.346;2022-10-23T04:41:34;12.50;;;7.77;;
51987;SDS011;38003;52.012;4.346;2022-10-23T04:44:03;12.93;;;7.70;;
51987;SDS011;38003;52.012;4.346;2022-10-23T04:46:31;13.77;;;7.37;;
51987;SDS011;38003;52.012;4.346;2022-10-23T04:48:59;11.07;;;7.40;;
51987;SDS011;38003;52.012;4.346;2022-10-23T04:51:27;11.60;;;6.93;;
51987;SDS011;38003;52.012;4.346;2022-10-23T04:53:55;11.37;;;7.10;;
51987;SDS011;38003;52.012;4.346;2022-10-23T04:56:23;13.97;;;7.60;;
51987;SDS011;38003;52.012;4.346;2022-10-23T04:58:52;10.87;;;7.33;;
51987;SDS011;38003;52.012;4.346;2022-10-23T05:01:20;12.33;;;7.07;;
51987;SDS011;38003;52.012;4.346;2022-10-23T05:03:48;9.67;;;6.80;;
51987;SDS011;38003;52.012;4.346;2022-10-23T05:06:15;11.67;;;6.80;;
51987;SDS011;38003;52.012;4.346;2022-10-23T05:08:43;10.17;;;6.70;;
51987;SDS011;38003;52.012;4.346;2022-10-23T05:11:11;12.23;;;6.80;;
51987;SDS011;38003;52.012;4.346;2022-10-23T05:13:39;11.37;;;6.70;;
51987;SDS011;38003;52.012;4.346;2022-10-23T05:16:08;11.23;;;7.13;;
51987;SDS011;38003;52.012;4.346;2022-10-23T05:18:38;9.37;;;6.10;;
51987;SDS011;38003;52.012;4.346;2022-10-23T05:21:11;9.30;;;6.20;;
51987;SDS011;38003;52.012;4.346;2022-10-23T05:23:43;13.70;;;5.80;;
51987;SDS011;38003;52.012;4.346;2022-10-23T05:26:11;11.50;;;6.70;;
51987;SDS011;38003;52.012;4.346;2022-10-23T05:28:39;9.90;;;5.83;;
51987;SDS011;38003;52.012;4.346;2022-10-23T05:31:09;7.10;;;5.67;;
51987;SDS011;38003;52.012;4.346;2022-10-23T05:33:37;10.47;;;6.53;;
51987;SDS011;38003;52.012;4.346;2022-10-23T05:36:06;9.80;;;6.20;;
51987;SDS011;38003;52.012;4.346;2022-10-23T05:38:35;7.63;;;5.20;;
51987;SDS011;38003;52.012;4.346;2022-10-23T05:41:03;12.07;;;5.53;;
51987;SDS011;38003;52.012;4.346;2022-10-23T05:43:31;8.43;;;5.60;;
51987;SDS011;38003;52.012;4.346;2022-10-23T05:46:02;9.50;;;5.73;;
51987;SDS011;38003;52.012;4.346;2022-10-23T05:48:33;9.60;;;5.43;;
51987;SDS011;38003;52.012;4.346;2022-10-23T05:51:01;8.70;;;5.90;;
51987;SDS011;38003;52.012;4.346;2022-10-23T05:53:30;8.43;;;4.93;;
51987;SDS011;38003;52.012;4.346;2022-10-23T05:56:02;10.57;;;5.97;;
51987;SDS011;38003;52.012;4.346;2022-10-23T05:58:30;8.60;;;5.40;;
51987;SDS011;38003;52.012;4.346;2022-10-23T06:01:02;11.50;;;5.53;;
51987;SDS011;38003;52.012;4.346;2022-10-23T06:03:33;8.27;;;5.30;;
51987;SDS011;38003;52.012;4.346;2022-10-23T06:06:02;10.30;;;5.67;;
51987;SDS011;38003;52.012;4.346;2022-10-23T06:08:30;8.50;;;5.23;;
51987;SDS011;38003;52.012;4.346;2022-10-23T06:11:03;9.63;;;5.53;;
51987;SDS011;38003;52.012;4.346;2022-10-23T06:13:32;9.67;;;5.07;;
51987;SDS011;38003;52.012;4.346;2022-10-23T06:16:06;12.13;;;5.13;;
51987;SDS011;38003;52.012;4.346;2022-10-23T06:18:37;8.90;;;5.40;;
51987;SDS011;38003;52.012;4.346;2022-10-23T06:21:05;11.20;;;5.47;;
51987;SDS011;38003;52.012;4.346;2022-10-23T06:23:33;11.03;;;5.23;;
51987;SDS011;38003;52.012;4.346;2022-10-23T06:26:03;6.93;;;4.97;;
51987;SDS011;38003;52.012;4.346;2022-10-23T06:28:32;8.57;;;4.93;;
51987;SDS011;38003;52.012;4.346;2022-10-23T06:31:02;10.37;;;4.83;;
51987;SDS011;38003;52.012;4.346;2022-10-23T06:33:31;8.07;;;4.90;;
51987;SDS011;38003;52.012;4.346;2022-10-23T06:36:00;9.40;;;5.13;;
51987;SDS011;38003;52.012;4.346;2022-10-23T06:38:28;12.13;;;5.23;;
51987;SDS011;38003;52.012;4.346;2022-10-23T06:41:02;8.60;;;5.33;;
51987;SDS011;38003;52.012;4.346;2022-10-23T06:43:31;9.60;;;5.10;;
51987;SDS011;38003;52.012;4.346;2022-10-23T06:45:59;6.47;;;4.87;;
51987;SDS011;38003;52.012;4.346;2022-10-23T06:48:28;11.20;;;5.20;;
51987;SDS011;38003;52.012;4.346;2022-10-23T06:50:55;9.13;;;5.07;;
51987;SDS011;38003;52.012;4.346;2022-10-23T06:53:25;9.10;;;4.97;;
51987;SDS011;38003;52.012;4.346;2022-10-23T06:55:57;8.60;;;5.03;;
51987;SDS011;38003;52.012;4.346;2022-10-23T06:58:25;8.10;;;4.93;;
51987;SDS011;38003;52.012;4.346;2022-10-23T07:00:53;8.60;;;5.13;;
51987;SDS011;38003;52.012;4.346;2022-10-23T07:03:21;8.07;;;5.13;;
51987;SDS011;38003;52.012;4.346;2022-10-23T07:05:49;8.80;;;5.00;;
51987;SDS011;38003;52.012;4.346;2022-10-23T07:08:17;10.33;;;5.37;;
51987;SDS011;38003;52.012;4.346;2022-10-23T07:10:46;9.43;;;5.10;;
51987;SDS011;38003;52.012;4.346;2022-10-23T07:13:14;9.53;;;5.03;;
51987;SDS011;38003;52.012;4.346;2022-10-23T07:15:42;9.63;;;4.90;;
51987;SDS011;38003;52.012;4.346;2022-10-23T07:18:10;8.53;;;5.37;;
51987;SDS011;38003;52.012;4.346;2022-10-23T07:20:40;10.37;;;5.37;;
51987;SDS011;38003;52.012;4.346;2022-10-23T07:23:08;7.97;;;5.40;;
51987;SDS011;38003;52.012;4.346;2022-10-23T07:25:37;10.33;;;5.33;;
51987;SDS011;38003;52.012;4.346;2022-10-23T07:28:06;7.50;;;5.20;;
51987;SDS011;38003;52.012;4.346;2022-10-23T07:30:34;15.07;;;5.60;;
51987;SDS011;38003;52.012;4.346;2022-10-23T07:33:02;12.97;;;5.70;;
51987;SDS011;38003;52.012;4.346;2022-10-23T07:35:30;10.30;;;5.03;;
51987;SDS011;38003;52.012;4.346;2022-10-23T07:38:04;11.03;;;5.60;;
51987;SDS011;38003;52.012;4.346;2022-10-23T07:40:32;9.23;;;5.63;;
51987;SDS011;38003;52.012;4.346;2022-10-23T07:42:59;7.30;;;5.10;;
51987;SDS011;38003;52.012;4.346;2022-10-23T07:45:29;9.37;;;6.03;;
51987;SDS011;38003;52.012;4.346;2022-10-23T07:47:56;9.63;;;5.80;;
51987;SDS011;38003;52.012;4.346;2022-10-23T07:50:24;8.53;;;5.40;;
51987;SDS011;38003;52.012;4.346;2022-10-23T07:52:52;9.73;;;5.70;;
51987;SDS011;38003;52.012;4.346;2022-10-23T07:55:20;9.90;;;6.17;;
51987;SDS011;38003;52.012;4.346;2022-10-23T07:57:47;7.93;;;5.50;;
51987;SDS011;38003;52.012;4.346;2022-10-23T08:00:15;10.43;;;5.60;;
51987;SDS011;38003;52.012;4.346;2022-10-23T08:02:45;8.23;;;5.77;;
51987;SDS011;38003;52.012;4.346;2022-10-23T08:05:13;9.13;;;5.60;;
51987;SDS011;38003;52.012;4.346;2022-10-23T08:07:40;8.33;;;5.87;;
51987;SDS011;38003;52.012;4.346;2022-10-23T08:10:08;6.87;;;5.47;;
51987;SDS011;38003;52.012;4.346;2022-10-23T08:12:36;11.40;;;5.93;;
51987;SDS011;38003;52.012;4.346;2022-10-23T08:15:04;10.73;;;6.47;;
51987;SDS011;38003;52.012;4.346;2022-10-23T08:17:33;9.07;;;6.00;;
51987;SDS011;38003;52.012;4.346;2022-10-23T08:20:02;10.03;;;6.07;;
51987;SDS011;38003;52.012;4.346;2022-10-23T08:22:30;8.37;;;6.13;;
51987;SDS011;38003;52.012;4.346;2022-10-23T08:25:00;9.50;;;5.67;;
51987;SDS011;38003;52.012;4.346;2022-10-23T08:27:27;8.10;;;5.57;;
51987;SDS011;38003;52.012;4.346;2022-10-23T08:29:55;10.40;;;5.97;;
51987;SDS011;38003;52.012;4.346;2022-10-23T08:32:23;7.23;;;5.63;;
51987;SDS011;38003;52.012;4.346;2022-10-23T08:34:54;11.30;;;6.40;;
51987;SDS011;38003;52.012;4.346;2022-10-23T08:37:23;13.47;;;6.30;;
51987;SDS011;38003;52.012;4.346;2022-10-23T08:39:51;10.03;;;5.97;;
51987;SDS011;38003;52.012;4.346;2022-10-23T08:42:20;9.70;;;6.10;;
51987;SDS011;38003;52.012;4.346;2022-10-23T08:44:53;9.60;;;5.73;;
51987;SDS011;38003;52.012;4.346;2022-10-23T08:47:27;10.00;;;6.50;;
51987;SDS011;38003;52.012;4.346;2022-10-23T08:50:01;8.93;;;6.00;;
51987;SDS011;38003;52.012;4.346;2022-10-23T08:52:34;9.80;;;5.93;;
51987;SDS011;38003;52.012;4.346;2022-10-23T08:55:11;8.77;;;7.10;;
51987;SDS011;38003;52.012;4.346;2022-10-23T08:57:44;9.27;;;5.73;;
51987;SDS011;38003;52.012;4.346;2022-10-23T09:00:17;11.33;;;6.07;;
51987;SDS011;38003;52.012;4.346;2022-10-23T09:02:46;7.27;;;5.77;;
51987;SDS011;38003;52.012;4.346;2022-10-23T09:05:16;7.20;;;5.60;;
51987;SDS011;38003;52.012;4.346;2022-10-23T09:07:52;7.90;;;6.10;;
51987;SDS011;38003;52.012;4.346;2022-10-23T09:10:36;7.77;;;5.23;;
51987;SDS011;38003;52.012;4.346;2022-10-23T09:13:23;7.70;;;5.47;;
51987;SDS011;38003;52.012;4.346;2022-10-23T09:16:03;7.87;;;5.80;;
51987;SDS011;38003;52.012;4.346;2022-10-23T09:18:41;8.93;;;5.43;;
51987;SDS011;38003;52.012;4.346;2022-10-23T09:21:09;9.63;;;5.83;;
51987;SDS011;38003;52.012;4.346;2022-10-23T09:23:38;7.97;;;5.37;;
51987;SDS011;38003;52.012;4.346;2022-10-23T09:26:09;7.83;;;5.80;;
51987;SDS011;38003;52.012;4.346;2022-10-23T09:28:43;8.00;;;5.47;;
51987;SDS011;38003;52.012;4.346;2022-10-23T09:31:13;8.63;;;5.30;;
51987;SDS011;38003;52.012;4.346;2022-10-23T09:33:52;10.53;;;5.43;;
51987;SDS011;38003;52.012;4.346;2022-10-23T09:36:21;6.47;;;4.57;;
51987;SDS011;38003;52.012;4.346;2022-10-23T09:38:52;7.90;;;5.43;;
51987;SDS011;38003;52.012;4.346;2022-10-23T09:41:23;8.67;;;5.80;;
51987;SDS011;38003;52.012;4.346;2022-10-23T09:44:01;8.67;;;5.43;;
51987;SDS011;38003;52.012;4.346;2022-10-23T09:46:37;10.30;;;5.60;;
51987;SDS011;38003;52.012;4.346;2022-10-23T09:49:13;7.33;;;5.40;;
51987;SDS011;38003;52.012;4.346;2022-10-23T09:51:54;7.57;;;5.43;;
51987;SDS011;38003;52.012;4.346;2022-10-23T09:54:28;9.87;;;5.60;;
51987;SDS011;38003;52.012;4.346;2022-10-23T09:56:59;8.20;;;5.30;;
51987;SDS011;38003;52.012;4.346;2022-10-23T09:59:32;6.97;;;5.20;;
51987;SDS011;38003;52.012;4.346;2022-10-23T10:02:00;7.07;;;5.43;;
51987;SDS011;38003;52.012;4.346;2022-10-23T10:04:31;5.97;;;5.07;;
51987;SDS011;38003;52.012;4.346;2022-10-23T10:07:00;7.83;;;5.37;;
51987;SDS011;38003;52.012;4.346;2022-10-23T10:09:30;7.67;;;5.77;;
51987;SDS011;38003;52.012;4.346;2022-10-23T10:12:02;7.63;;;5.90;;
51987;SDS011;38003;52.012;4.346;2022-10-23T10:14:45;8.40;;;5.23;;
51987;SDS011;38003;52.012;4.346;2022-10-23T10:17:24;11.90;;;5.10;;
51987;SDS011;38003;52.012;4.346;2022-10-23T10:20:05;6.40;;;5.13;;
51987;SDS011;38003;52.012;4.346;2022-10-23T10:23:10;5.87;;;4.70;;
51987;SDS011;38003;52.012;4.346;2022-10-23T10:25:45;9.50;;;5.07;;
51987;SDS011;38003;52.012;4.346;2022-10-23T10:28:25;7.83;;;5.50;;
51987;SDS011;38003;52.012;4.346;2022-10-23T10:31:08;6.77;;;4.87;;
51987;SDS011;38003;52.012;4.346;2022-10-23T10:33:43;10.50;;;5.47;;
51987;SDS011;38003;52.012;4.346;2022-10-23T10:36:24;7.57;;;4.73;;
51987;SDS011;38003;52.012;4.346;2022-10-23T10:39:09;8.37;;;5.27;;
51987;SDS011;38003;52.012;4.346;2022-10-23T10:41:50;6.87;;;4.83;;
51987;SDS011;38003;52.012;4.346;2022-10-23T10:47:13;9.97;;;5.53;;
51987;SDS011;38003;52.012;4.346;2022-10-23T10:49:48;7.83;;;5.10;;
51987;SDS011;38003;52.012;4.346;2022-10-23T10:52:25;7.00;;;5.17;;
51987;SDS011;38003;52.012;4.346;2022-10-23T10:55:00;6.60;;;4.87;;
51987;SDS011;38003;52.012;4.346;2022-10-23T10:57:33;8.43;;;5.07;;
51987;SDS011;38003;52.012;4.346;2022-10-23T11:00:12;6.43;;;4.50;;
51987;SDS011;38003;52.012;4.346;2022-10-23T11:02:42;8.07;;;4.93;;
51987;SDS011;38003;52.012;4.346;2022-10-23T11:05:15;7.77;;;5.00;;
51987;SDS011;38003;52.012;4.346;2022-10-23T11:07:51;8.33;;;4.57;;
51987;SDS011;38003;52.012;4.346;2022-10-23T11:10:21;6.63;;;4.23;;
51987;SDS011;38003;52.012;4.346;2022-10-23T11:12:50;6.97;;;4.60;;
51987;SDS011;38003;52.012;4.346;2022-10-23T11:15:19;7.33;;;4.43;;
51987;SDS011;38003;52.012;4.346;2022-10-23T11:17:54;6.00;;;4.47;;
51987;SDS011;38003;52.012;4.346;2022-10-23T11:20:37;6.90;;;4.33;;
51987;SDS011;38003;52.012;4.346;2022-10-23T11:26:10;6.40;;;4.13;;
51987;SDS011;38003;52.012;4.346;2022-10-23T11:29:02;5.83;;;4.40;;
51987;SDS011;38003;52.012;4.346;2022-10-23T11:31:52;8.03;;;3.90;;
51987;SDS011;38003;52.012;4.346;2022-10-23T11:34:38;7.53;;;4.17;;
51987;SDS011;38003;52.012;4.346;2022-10-23T11:37:17;7.80;;;4.20;;
51987;SDS011;38003;52.012;4.346;2022-10-23T11:39:56;7.20;;;4.37;;
51987;SDS011;38003;52.012;4.346;2022-10-23T11:42:31;7.07;;;4.30;;
51987;SDS011;38003;52.012;4.346;2022-10-23T11:45:02;5.67;;;4.33;;
51987;SDS011;38003;52.012;4.346;2022-10-23T11:47:32;5.87;;;3.77;;
51987;SDS011;38003;52.012;4.346;2022-10-23T11:50:12;6.60;;;3.60;;
51987;SDS011;38003;52.012;4.346;2022-10-23T11:52:53;7.27;;;3.60;;
51987;SDS011;38003;52.012;4.346;2022-10-23T11:55:56;6.07;;;3.50;;
51987;SDS011;38003;52.012;4.346;2022-10-23T11:58:25;5.70;;;3.27;;
51987;SDS011;38003;52.012;4.346;2022-10-23T12:01:00;6.03;;;3.20;;
51987;SDS011;38003;52.012;4.346;2022-10-23T12:03:38;5.70;;;3.70;;
51987;SDS011;38003;52.012;4.346;2022-10-23T12:06:13;7.20;;;3.77;;
51987;SDS011;38003;52.012;4.346;2022-10-23T12:08:48;7.67;;;3.67;;
51987;SDS011;38003;52.012;4.346;2022-10-23T12:11:23;4.90;;;3.40;;
51987;SDS011;38003;52.012;4.346;2022-10-23T12:13:53;4.83;;;3.47;;
51987;SDS011;38003;52.012;4.346;2022-10-23T12:16:32;4.90;;;3.20;;
51987;SDS011;38003;52.012;4.346;2022-10-23T12:19:00;5.07;;;2.97;;
51987;SDS011;38003;52.012;4.346;2022-10-23T12:21:43;5.13;;;2.90;;
51987;SDS011;38003;52.012;4.346;2022-10-23T12:24:16;3.90;;;2.83;;
51987;SDS011;38003;52.012;4.346;2022-10-23T12:27:08;3.73;;;2.90;;
51987;SDS011;38003;52.012;4.346;2022-10-23T12:29:46;7.60;;;2.90;;
51987;SDS011;38003;52.012;4.346;2022-10-23T12:32:28;6.23;;;3.07;;
51987;SDS011;38003;52.012;4.346;2022-10-23T12:35:11;7.03;;;3.73;;
51987;SDS011;38003;52.012;4.346;2022-10-23T12:37:55;7.23;;;3.10;;
51987;SDS011;38003;52.012;4.346;2022-10-23T12:40:33;6.77;;;3.43;;
51987;SDS011;38003;52.012;4.346;2022-10-23T12:43:01;5.03;;;3.47;;
51987;SDS011;38003;52.012;4.346;2022-10-23T12:45:29;4.20;;;3.00;;
51987;SDS011;38003;52.012;4.346;2022-10-23T12:48:01;6.77;;;3.40;;
51987;SDS011;38003;52.012;4.346;2022-10-23T12:50:29;11.80;;;3.47;;
51987;SDS011;38003;52.012;4.346;2022-10-23T12:52:59;5.57;;;3.30;;
51987;SDS011;38003;52.012;4.346;2022-10-23T12:55:29;4.90;;;3.00;;
51987;SDS011;38003;52.012;4.346;2022-10-23T12:58:01;8.10;;;3.07;;
51987;SDS011;38003;52.012;4.346;2022-10-23T13:00:29;5.87;;;3.10;;
51987;SDS011;38003;52.012;4.346;2022-10-23T13:02:57;6.20;;;3.03;;
51987;SDS011;38003;52.012;4.346;2022-10-23T13:05:27;5.10;;;3.10;;
51987;SDS011;38003;52.012;4.346;2022-10-23T13:07:56;7.53;;;3.47;;
51987;SDS011;38003;52.012;4.346;2022-10-23T13:10:25;5.67;;;2.90;;
51987;SDS011;38003;52.012;4.346;2022-10-23T13:12:53;5.23;;;3.00;;
51987;SDS011;38003;52.012;4.346;2022-10-23T13:15:24;5.47;;;2.67;;
51987;SDS011;38003;52.012;4.346;2022-10-23T13:18:02;5.17;;;3.30;;
51987;SDS011;38003;52.012;4.346;2022-10-23T13:20:34;7.80;;;3.07;;
51987;SDS011;38003;52.012;4.346;2022-10-23T13:23:10;6.53;;;3.17;;
51987;SDS011;38003;52.012;4.346;2022-10-23T13:25:51;7.77;;;3.10;;
51987;SDS011;38003;52.012;4.346;2022-10-23T13:28:23;5.83;;;3.07;;
51987;SDS011;38003;52.012;4.346;2022-10-23T13:30:57;6.93;;;3.97;;
51987;SDS011;38003;52.012;4.346;2022-10-23T13:33:34;7.63;;;3.33;;
51987;SDS011;38003;52.012;4.346;2022-10-23T13:36:05;4.43;;;3.40;;
51987;SDS011;38003;52.012;4.346;2022-10-23T13:38:58;6.17;;;3.10;;
51987;SDS011;38003;52.012;4.346;2022-10-23T13:41:27;4.27;;;3.00;;
51987;SDS011;38003;52.012;4.346;2022-10-23T13:43:57;4.33;;;2.83;;
51987;SDS011;38003;52.012;4.346;2022-10-23T13:46:24;5.17;;;2.80;;
51987;SDS011;38003;52.012;4.346;2022-10-23T13:48:52;5.90;;;3.20;;
51987;SDS011;38003;52.012;4.346;2022-10-23T13:51:22;5.33;;;2.70;;
51987;SDS011;38003;52.012;4.346;2022-10-23T13:53:51;6.67;;;2.90;;
51987;SDS011;38003;52.012;4.346;2022-10-23T13:56:21;6.88;;;2.55;;
51987;SDS011;38003;52.012;4.346;2022-10-23T13:58:50;7.33;;;3.00;;
51987;SDS011;38003;52.012;4.346;2022-10-23T14:01:19;5.13;;;3.10;;
51987;SDS011;38003;52.012;4.346;2022-10-23T14:03:48;4.40;;;2.73;;
51987;SDS011;38003;52.012;4.346;2022-10-23T14:06:16;5.28;;;2.80;;
51987;SDS011;38003;52.012;4.346;2022-10-23T14:08:46;5.33;;;2.40;;
51987;SDS011;38003;52.012;4.346;2022-10-23T14:11:14;4.23;;;2.80;;
51987;SDS011;38003;52.012;4.346;2022-10-23T14:13:44;4.23;;;2.57;;
51987;SDS011;38003;52.012;4.346;2022-10-23T14:16:13;6.50;;;2.80;;
51987;SDS011;38003;52.012;4.346;2022-10-23T14:18:42;6.37;;;2.90;;
51987;SDS011;38003;52.012;4.346;2022-10-23T14:21:11;7.63;;;2.43;;
51987;SDS011;38003;52.012;4.346;2022-10-23T14:23:40;4.93;;;2.97;;
51987;SDS011;38003;52.012;4.346;2022-10-23T14:26:10;5.83;;;3.37;;
51987;SDS011;38003;52.012;4.346;2022-10-23T14:28:39;5.70;;;2.65;;
51987;SDS011;38003;52.012;4.346;2022-10-23T14:31:08;5.45;;;2.33;;
51987;SDS011;38003;52.012;4.346;2022-10-23T14:33:37;6.00;;;2.60;;
51987;SDS011;38003;52.012;4.346;2022-10-23T14:36:06;8.50;;;2.70;;
51987;SDS011;38003;52.012;4.346;2022-10-23T14:38:34;3.70;;;2.47;;
51987;SDS011;38003;52.012;4.346;2022-10-23T14:41:03;4.00;;;2.60;;
51987;SDS011;38003;52.012;4.346;2022-10-23T14:43:37;4.90;;;2.25;;
51987;SDS011;38003;52.012;4.346;2022-10-23T14:46:09;4.80;;;2.50;;
51987;SDS011;38003;52.012;4.346;2022-10-23T14:48:38;6.07;;;2.50;;
51987;SDS011;38003;52.012;4.346;2022-10-23T14:51:14;4.22;;;2.65;;
51987;SDS011;38003;52.012;4.346;2022-10-23T14:53:44;8.97;;;2.70;;
51987;SDS011;38003;52.012;4.346;2022-10-23T14:56:13;3.78;;;2.60;;
51987;SDS011;38003;52.012;4.346;2022-10-23T14:58:42;5.57;;;2.45;;
51987;SDS011;38003;52.012;4.346;2022-10-23T15:01:09;4.93;;;2.43;;
51987;SDS011;38003;52.012;4.346;2022-10-23T15:03:38;8.60;;;2.70;;
51987;SDS011;38003;52.012;4.346;2022-10-23T15:06:06;5.90;;;2.50;;
51987;SDS011;38003;52.012;4.346;2022-10-23T15:08:34;5.35;;;2.83;;
51987;SDS011;38003;52.012;4.346;2022-10-23T15:11:03;3.65;;;2.35;;
51987;SDS011;38003;52.012;4.346;2022-10-23T15:13:38;6.32;;;2.30;;
51987;SDS011;38003;52.012;4.346;2022-10-23T15:16:06;3.75;;;2.42;;